Time;durP1;ratioP1;P1;durP2;ratioP2;P2;SDS_P1;SDS_P2;PMS_P1;PMS_P2;Temp;Humidity;BMP_temperature;BMP_pressure;BME280_temperature;BME280_humidity;BME280_pressure;Samples;Min_cycle;Max_cycle;Signal;HPM_P1;HPM_P2
2022/03/22 00:01:38;;;;;;;0.60;0.30;;;;;;;;;;5033437;28;21043;-70
2022/03/22 00:04:06;;;;;;;0.70;0.50;;;10.20;99.90;;;;;;5033841;28;20438;-71
2022/03/22 00:06:34;;;;;;;0.60;0.10;;;10.20;99.90;;;;;;5014437;28;20810;-72
2022/03/22 00:09:02;;;;;;;0.60;0.10;;;10.20;99.90;;;;;;5014819;28;20435;-71
2022/03/22 00:11:33;;;;;;;0.60;0.10;;;10.10;99.90;;;;;;5015012;28;20975;-72
2022/03/22 00:14:06;;;;;;;0.60;0.10;;;10.20;99.90;;;;;;5028070;28;20451;-70
2022/03/22 00:16:33;;;;;;;0.60;0.10;;;10.20;99.90;;;;;;5033986;28;20451;-71
2022/03/22 00:19:22;;;;;;;0.60;0.10;;;10.10;99.90;;;;;;5034042;28;20497;-71
2022/03/22 00:21:50;;;;;;;0.60;0.10;;;10.10;99.90;;;;;;5033935;28;20470;-71
2022/03/22 00:24:18;;;;;;;0.60;0.10;;;10.00;99.90;;;;;;5028768;28;20479;-71
2022/03/22 00:26:55;;;;;;;0.60;0.10;;;10.00;99.90;;;;;;5032265;28;20457;-71
2022/03/22 00:29:23;;;;;;;0.60;0.10;;;10.00;99.90;;;;;;5033626;28;20517;-71
2022/03/22 00:31:51;;;;;;;0.60;0.10;;;10.00;99.90;;;;;;5033928;28;20707;-71
2022/03/22 00:34:19;;;;;;;0.60;0.10;;;9.90;99.90;;;;;;5033946;28;20854;-70
2022/03/22 00:36:49;;;;;;;0.60;0.13;;;9.90;99.90;;;;;;5033566;28;20447;-71
2022/03/22 00:39:18;;;;;;;1.07;1.07;;;9.80;99.90;;;;;;5020087;28;20490;-71
2022/03/22 00:41:47;;;;;;;0.60;0.10;;;9.80;99.90;;;;;;5013557;28;20475;-72
2022/03/22 00:44:17;;;;;;;0.60;0.30;;;9.80;99.90;;;;;;5014050;28;20451;-71
2022/03/22 00:46:45;;;;;;;0.60;0.10;;;8.10;99.90;;;;;;5013998;28;20519;-71
2022/03/22 00:52:01;;;;;;;0.60;0.10;;;9.70;99.90;;;;;;5028829;28;20991;-71
2022/03/22 00:54:29;;;;;;;0.60;0.10;;;;;;;;;;5032527;28;20438;-71
2022/03/22 00:56:59;;;;;;;0.60;0.10;;;;;;;;;;5032064;28;20971;-70
2022/03/22 01:02:25;;;;;;;0.60;0.10;;;9.50;99.90;;;;;;5027636;28;20470;-71
2022/03/22 01:10:32;;;;;;;0.60;0.20;;;9.50;99.90;;;;;;5089266;28;20452;-71
2022/03/22 01:13:00;;;;;;;0.60;0.43;;;9.60;99.90;;;;;;5089758;28;20463;-71
2022/03/22 01:15:32;;;;;;;0.60;0.10;;;9.60;99.90;;;;;;5088768;28;20433;-70
2022/03/22 01:18:04;;;;;;;0.60;0.10;;;9.50;99.90;;;;;;5088326;28;20493;-71
2022/03/22 01:20:33;;;;;;;0.60;0.10;;;9.50;99.90;;;;;;5090093;28;20472;-72
2022/03/22 01:23:04;;;;;;;4.53;2.40;;;9.40;99.90;;;;;;5090217;28;20456;-71
2022/03/22 01:25:34;;;;;;;0.60;0.10;;;9.40;99.90;;;;;;5088999;28;20436;-71
2022/03/22 01:28:04;;;;;;;0.60;0.10;;;9.40;99.90;;;;;;5089163;28;20456;-71
2022/03/22 01:30:33;;;;;;;0.60;0.10;;;9.30;99.90;;;;;;5089210;28;20440;-71
2022/03/22 01:33:01;;;;;;;0.60;0.10;;;9.30;99.90;;;;;;5088168;28;20827;-71
2022/03/22 01:35:30;;;;;;;0.60;0.10;;;9.20;99.90;;;;;;5088835;28;20530;-70
2022/03/22 01:37:59;;;;;;;0.60;0.20;;;9.20;99.90;;;;;;5088512;28;20447;-71
2022/03/22 01:40:30;;;;;;;0.60;0.10;;;9.30;99.90;;;;;;5088520;28;20448;-70
2022/03/22 01:42:58;;;;;;;0.60;0.10;;;9.30;99.90;;;;;;5088603;28;20847;-70
2022/03/22 01:45:26;;;;;;;0.60;0.10;;;9.30;99.90;;;;;;5088056;28;20451;-71
2022/03/22 01:47:59;;;;;;;0.60;0.10;;;9.30;99.90;;;;;;5068781;28;20486;-71
2022/03/22 01:50:27;;;;;;;0.60;0.10;;;9.20;99.90;;;;;;5068277;28;20498;-71
2022/03/22 01:52:56;;;;;;;0.60;0.10;;;9.10;99.90;;;;;;5067815;28;20477;-71
2022/03/22 01:55:25;;;;;;;0.60;0.10;;;9.10;99.90;;;;;;5068112;28;20959;-71
2022/03/22 01:57:55;;;;;;;0.60;0.10;;;9.00;99.90;;;;;;5067693;28;20443;-71
2022/03/22 02:00:23;;;;;;;0.57;0.10;;;9.00;99.90;;;;;;5074362;28;20447;-71
2022/03/22 02:05:57;;;;;;;0.60;0.10;;;8.90;99.90;;;;;;5088064;28;20439;-71
2022/03/22 02:08:27;;;;;;;0.60;0.10;;;8.90;99.90;;;;;;5088186;28;20430;-70
2022/03/22 02:10:56;;;;;;;0.60;0.10;;;8.80;99.90;;;;;;5088255;28;20832;-70
2022/03/22 02:13:26;;;;;;;2.43;2.33;;;8.80;99.90;;;;;;5088675;28;20437;-71
2022/03/22 02:15:57;;;;;;;0.60;0.10;;;8.70;99.90;;;;;;5068603;28;20456;-71
2022/03/22 02:18:25;;;;;;;0.60;0.10;;;11.90;99.90;;;;;;5058337;28;20442;-70
2022/03/22 02:20:54;;;;;;;0.60;0.10;;;8.50;99.90;;;;;;5054359;28;20464;-70
2022/03/22 02:23:35;;;;;;;0.60;0.10;;;8.50;99.90;;;;;;5054285;28;20516;-69
2022/03/22 02:26:02;;;;;;;0.70;0.40;;;8.50;99.90;;;;;;5066019;28;20443;-70
2022/03/22 02:28:30;;;;;;;0.60;0.10;;;8.60;99.90;;;;;;5074346;28;20541;-71
2022/03/22 02:30:58;;;;;;;0.60;0.10;;;8.70;99.90;;;;;;5072126;28;20469;-71
2022/03/22 02:33:26;;;;;;;0.83;0.70;;;8.60;99.90;;;;;;5053688;28;20456;-70
2022/03/22 02:35:54;;;;;;;13.57;12.53;;;8.60;99.90;;;;;;5066081;28;20452;-71
2022/03/22 02:38:22;;;;;;;0.60;0.10;;;8.60;99.90;;;;;;5071983;28;20436;-72
2022/03/22 02:40:51;;;;;;;0.60;0.10;;;8.50;99.90;;;;;;5073482;28;21229;-71
2022/03/22 02:43:19;;;;;;;0.60;0.10;;;8.20;99.90;;;;;;5073528;28;20440;-71
2022/03/22 02:45:47;;;;;;;0.60;0.10;;;8.40;99.90;;;;;;5074020;28;20441;-71
2022/03/22 02:48:18;;;;;;;0.70;0.20;;;8.30;99.90;;;;;;5063203;28;20489;-70
2022/03/22 02:50:45;;;;;;;0.60;0.10;;;8.30;99.90;;;;;;5067683;28;20465;-70
2022/03/22 02:53:14;;;;;;;0.60;0.13;;;8.30;99.90;;;;;;5073351;28;20448;-71
2022/03/22 02:55:42;;;;;;;0.60;0.10;;;8.20;99.90;;;;;;5056641;28;20484;-70
2022/03/22 02:58:11;;;;;;;0.60;0.10;;;8.20;99.90;;;;;;5053469;28;20540;-71
2022/03/22 03:00:39;;;;;;;0.60;0.10;;;8.10;99.90;;;;;;5060235;28;20451;-71
2022/03/22 03:03:07;;;;;;;0.60;0.10;;;8.10;99.90;;;;;;5066035;28;20547;-71
2022/03/22 03:05:35;;;;;;;0.60;0.20;;;8.10;99.90;;;;;;5073363;28;20907;-71
2022/03/22 03:08:03;;;;;;;0.60;0.10;;;8.10;99.90;;;;;;5073042;28;20982;-70
2022/03/22 03:10:31;;;;;;;0.60;0.10;;;8.10;99.90;;;;;;5073507;28;20463;-70
2022/03/22 03:13:00;;;;;;;0.60;0.10;;;7.90;99.90;;;;;;5073564;28;20484;-70
2022/03/22 03:15:30;;;;;;;1.93;1.47;;;7.90;99.90;;;;;;5064727;28;20980;-70
2022/03/22 03:17:58;;;;;;;0.60;0.10;;;7.80;99.90;;;;;;5075836;28;20440;-70
2022/03/22 03:20:28;;;;;;;0.60;0.10;;;7.80;99.90;;;;;;5074279;28;20452;-70
2022/03/22 03:22:56;;;;;;;0.60;0.10;;;7.80;99.90;;;;;;5067063;28;20473;-71
2022/03/22 03:25:24;;;;;;;0.60;0.10;;;7.80;99.90;;;;;;5060617;28;20445;-71
2022/03/22 03:27:52;;;;;;;0.53;0.10;;;7.80;99.90;;;;;;5072702;28;20479;-71
2022/03/22 03:30:20;;;;;;;0.60;0.10;;;;;;;;;;5070990;28;20447;-71
2022/03/22 03:32:50;;;;;;;0.60;0.10;;;7.70;99.90;;;;;;5072897;28;20467;-71
2022/03/22 03:35:18;;;;;;;0.60;0.10;;;7.70;99.90;;;;;;5073334;28;20529;-71
2022/03/22 03:37:47;;;;;;;0.60;0.10;;;7.70;99.90;;;;;;5072983;28;20451;-70
2022/03/22 03:40:15;;;;;;;0.60;0.10;;;7.80;99.90;;;;;;5073523;28;20458;-71
2022/03/22 03:42:46;;;;;;;0.60;0.10;;;7.80;99.90;;;;;;5067401;28;20473;-71
2022/03/22 03:48:01;;;;;;;0.60;0.10;;;7.80;99.90;;;;;;5052626;28;21018;-72
2022/03/22 03:50:31;;;;;;;0.60;0.10;;;7.80;99.90;;;;;;5053331;28;20451;-70
2022/03/22 03:52:58;;;;;;;0.60;0.10;;;7.70;99.90;;;;;;5052627;28;20552;-70
2022/03/22 03:55:26;;;;;;;0.60;0.10;;;7.60;99.90;;;;;;5052598;28;20449;-71
2022/03/22 03:57:54;;;;;;;0.60;0.10;;;7.50;99.90;;;;;;5068475;28;20456;-70
2022/03/22 04:00:23;;;;;;;0.60;0.20;;;7.40;99.90;;;;;;5072775;28;20444;-71
2022/03/22 04:02:53;;;;;;;0.60;0.10;;;7.30;99.90;;;;;;5072619;28;20495;-70
2022/03/22 04:05:23;;;;;;;0.60;0.10;;;7.30;99.90;;;;;;5072440;28;20938;-71
2022/03/22 04:07:51;;;;;;;0.60;0.10;;;7.20;99.90;;;;;;5072063;28;20483;-70
2022/03/22 04:10:19;;;;;;;0.60;0.10;;;7.20;99.90;;;;;;5071727;28;20451;-70
2022/03/22 04:12:46;;;;;;;0.60;0.10;;;7.10;99.90;;;;;;5072571;28;20472;-70
2022/03/22 04:15:14;;;;;;;0.60;0.10;;;7.10;99.90;;;;;;5072342;28;20999;-71
2022/03/22 04:17:42;;;;;;;0.60;0.10;;;7.10;99.90;;;;;;5072778;28;20450;-72
2022/03/22 04:20:11;;;;;;;4.10;3.90;;;7.10;99.90;;;;;;5072449;28;20874;-71
2022/03/22 04:22:41;;;;;;;0.60;0.10;;;7.00;99.90;;;;;;5080484;22;20501;-77
2022/03/22 04:25:09;;;;;;;0.60;0.10;;;7.00;99.90;;;;;;5062904;28;20453;-77
2022/03/22 04:33:08;;;;;;;0.60;0.10;;;6.90;99.90;;;;;;5055101;28;20468;-78
2022/03/22 04:35:36;;;;;;;1.63;1.40;;;6.90;99.90;;;;;;5055787;28;20443;-79
2022/03/22 04:38:05;;;;;;;0.60;0.10;;;6.90;99.90;;;;;;5056264;28;20450;-79
2022/03/22 04:40:35;;;;;;;0.60;0.10;;;6.90;99.90;;;;;;5058439;28;20530;-79
2022/03/22 04:43:03;;;;;;;0.60;0.10;;;6.90;99.90;;;;;;5056387;28;20467;-78
2022/03/22 04:45:31;;;;;;;0.60;0.10;;;6.90;99.90;;;;;;5057739;28;20442;-78
2022/03/22 04:47:59;;;;;;;0.60;0.10;;;6.90;99.90;;;;;;5060464;28;20472;-79
2022/03/22 04:50:27;;;;;;;0.60;0.10;;;7.00;99.90;;;;;;5071857;28;20447;-78
2022/03/22 04:58:27;;;;;;;0.60;0.10;;;6.90;99.90;;;;;;5065430;28;20591;-78
2022/03/22 05:00:55;;;;;;;0.60;0.20;;;6.90;99.90;;;;;;5069467;28;20516;-78
2022/03/22 05:03:23;;;;;;;0.60;0.10;;;6.80;99.90;;;;;;5059259;28;20449;-78
2022/03/22 05:08:37;;;;;;;0.60;0.10;;;6.60;99.90;;;;;;5060944;28;20484;-78
2022/03/22 05:11:07;;;;;;;0.60;0.10;;;6.60;99.90;;;;;;5063319;28;20883;-78
2022/03/22 05:13:35;;;;;;;0.60;0.10;;;6.60;99.90;;;;;;5066913;28;20527;-78
2022/03/22 05:16:03;;;;;;;0.50;0.10;;;6.60;99.90;;;;;;5059945;28;20458;-78
2022/03/22 05:18:31;;;;;;;0.60;0.10;;;6.60;99.90;;;;;;5067684;28;20459;-76
2022/03/22 05:21:02;;;;;;;0.60;0.10;;;;;;;;;;5070195;28;20481;-76
2022/03/22 05:23:30;;;;;;;0.60;0.10;;;6.60;99.90;;;;;;5070413;28;20647;-78
2022/03/22 05:25:57;;;;;;;0.60;0.20;;;6.70;99.90;;;;;;5062256;28;20939;-78
2022/03/22 05:28:27;;;;;;;0.60;0.10;;;6.60;99.90;;;;;;5062563;28;20534;-78
2022/03/22 05:30:54;;;;;;;0.50;0.10;;;6.60;99.90;;;;;;5062111;28;20459;-78
2022/03/22 05:33:22;;;;;;;0.57;0.10;;;6.60;99.90;;;;;;5067284;28;20603;-77
2022/03/22 05:35:51;;;;;;;0.80;0.60;;;6.60;99.90;;;;;;5061128;28;20446;-79
2022/03/22 05:38:18;;;;;;;0.97;0.97;;;6.60;99.90;;;;;;5056808;28;20452;-78
2022/03/22 05:40:46;;;;;;;0.60;0.10;;;6.60;99.90;;;;;;5056420;28;20547;-78
2022/03/22 05:43:14;;;;;;;0.60;0.20;;;6.50;99.90;;;;;;5054844;28;20614;-79
2022/03/22 05:45:50;;;;;;;0.60;0.10;;;6.70;99.90;;;;;;5064018;28;20526;-78
2022/03/22 05:48:21;;;;;;;1.27;1.17;;;8.20;99.90;;;;;;5062728;28;20465;-78
2022/03/22 05:50:49;;;;;;;0.50;0.10;;;6.70;99.90;;;;;;5059209;28;20440;-79
2022/03/22 05:53:17;;;;;;;0.57;0.10;;;6.80;99.90;;;;;;5057443;28;20476;-79
2022/03/22 05:55:45;;;;;;;0.60;0.10;;;6.80;99.90;;;;;;5041013;28;21029;-79
2022/03/22 05:58:13;;;;;;;0.60;0.10;;;6.80;99.90;;;;;;5052697;28;21779;-77
2022/03/22 06:00:41;;;;;;;0.60;0.10;;;6.80;99.90;;;;;;5064323;28;20483;-77
2022/03/22 06:03:10;;;;;;;0.60;0.10;;;6.70;99.90;;;;;;5066488;28;20495;-78
2022/03/22 06:05:38;;;;;;;0.60;0.10;;;6.70;99.90;;;;;;5067356;28;20456;-80
2022/03/22 06:08:06;;;;;;;0.60;0.20;;;6.80;99.90;;;;;;5059065;28;20463;-78
2022/03/22 06:10:39;;;;;;;0.60;0.10;;;6.80;99.90;;;;;;5059536;28;20472;-79
2022/03/22 06:13:06;;;;;;;0.60;0.10;;;6.80;99.90;;;;;;5060709;28;20495;-79
2022/03/22 06:15:34;;;;;;;0.60;0.10;;;6.90;99.90;;;;;;5060311;28;20858;-79
2022/03/22 06:18:04;;;;;;;0.60;0.10;;;6.90;99.90;;;;;;5059541;28;20448;-79
2022/03/22 06:20:35;;;;;;;0.57;0.10;;;6.90;99.90;;;;;;5058309;28;20466;-79
2022/03/22 06:23:05;;;;;;;0.60;0.10;;;6.90;99.90;;;;;;5041919;28;20522;-79
2022/03/22 06:25:34;;;;;;;0.50;0.10;;;7.00;99.90;;;;;;5047641;28;20823;-79
2022/03/22 06:28:04;;;;;;;0.60;0.10;;;6.90;99.90;;;;;;5059828;28;20896;-78
2022/03/22 06:30:32;;;;;;;0.60;0.10;;;6.80;99.90;;;;;;5059179;28;20435;-78
2022/03/22 06:33:02;;;;;;;0.60;0.10;;;6.90;99.90;;;;;;5059522;28;20476;-77
2022/03/22 06:35:31;;;;;;;0.60;0.10;;;6.90;99.90;;;;;;5051293;28;20460;-80
2022/03/22 06:38:02;;;;;;;0.60;0.10;;;7.00;99.90;;;;;;5058917;28;20560;-78
2022/03/22 06:40:34;;;;;;;5.10;4.80;;;7.10;99.90;;;;;;5046764;28;20457;-80
2022/03/22 06:43:04;;;;;;;0.60;0.10;;;7.10;99.90;;;;;;5058695;28;20518;-79
2022/03/22 06:45:35;;;;;;;0.60;0.10;;;7.50;99.90;;;;;;5063700;28;20444;-80
2022/03/22 06:48:05;;;;;;;0.60;0.10;;;7.20;99.90;;;;;;5060341;28;20446;-80
2022/03/22 06:50:34;;;;;;;0.50;0.10;;;7.20;99.90;;;;;;5057359;28;20478;-78
2022/03/22 06:53:05;;;;;;;0.60;0.10;;;7.30;99.90;;;;;;5056651;28;20493;-79
2022/03/22 06:55:34;;;;;;;0.60;0.10;;;7.30;99.90;;;;;;5040018;28;20474;-78
2022/03/22 06:58:02;;;;;;;0.60;0.10;;;7.40;99.90;;;;;;5037942;28;20541;-79
2022/03/22 07:00:31;;;;;;;0.60;0.10;;;7.50;99.90;;;;;;5046280;28;20459;-79
2022/03/22 07:03:01;;;;;;;2.10;0.97;;;7.50;99.90;;;;;;5060862;28;20508;-79
2022/03/22 07:05:31;;;;;;;0.60;0.10;;;7.60;99.90;;;;;;5067822;28;20525;-78
2022/03/22 07:07:59;;;;;;;0.60;0.10;;;7.70;99.90;;;;;;5065964;28;21035;-78
2022/03/22 07:10:30;;;;;;;1.13;0.70;;;7.80;99.90;;;;;;5050832;28;20512;-77
2022/03/22 07:13:01;;;;;;;1.17;1.07;;;7.90;99.90;;;;;;5054330;28;20557;-79
2022/03/22 07:15:32;;;;;;;0.70;0.63;;;8.10;99.90;;;;;;5047142;28;20473;-78
2022/03/22 07:18:01;;;;;;;0.60;0.10;;;8.10;99.90;;;;;;5046840;28;20547;-78
2022/03/22 07:20:29;;;;;;;0.60;0.10;;;8.10;99.90;;;;;;5056730;28;20525;-79
2022/03/22 07:22:59;;;;;;;0.60;0.10;;;8.20;99.90;;;;;;5062470;28;20473;-80
2022/03/22 07:25:27;;;;;;;0.60;0.40;;;8.30;99.90;;;;;;5056208;28;20533;-78
2022/03/22 07:27:56;;;;;;;0.60;0.30;;;8.40;99.90;;;;;;5060490;28;20502;-79
2022/03/22 07:30:24;;;;;;;11.77;11.23;;;8.40;99.90;;;;;;5072312;28;20537;-78
2022/03/22 07:32:52;;;;;;;1.57;1.27;;;8.50;99.90;;;;;;5073675;28;20533;-78
2022/03/22 07:35:21;;;;;;;0.60;0.10;;;8.50;99.90;;;;;;5070961;28;20453;-78
2022/03/22 07:37:49;;;;;;;3.30;3.00;;;8.60;99.90;;;;;;5072591;28;20474;-80
2022/03/22 07:40:18;;;;;;;1.40;0.67;;;8.70;99.90;;;;;;5069769;28;20533;-80
2022/03/22 07:42:48;;;;;;;0.60;0.10;;;8.70;99.90;;;;;;5058279;28;20475;-78
2022/03/22 07:45:19;;;;;;;0.60;0.20;;;8.70;99.90;;;;;;5050930;28;20756;-80
2022/03/22 07:47:47;;;;;;;1.37;1.27;;;8.80;99.90;;;;;;5055618;28;20456;-78
2022/03/22 07:53:05;;;;;;;0.70;0.57;;;9.00;99.90;;;;;;5051506;28;20478;-80
2022/03/22 07:55:36;;;;;;;9.93;9.20;;;9.00;99.90;;;;;;5045718;28;20449;-81
2022/03/22 07:58:05;;;;;;;0.70;0.53;;;9.10;99.90;;;;;;5053711;28;21035;-79
2022/03/22 08:00:37;;;;;;;1.23;0.80;;;7.80;99.90;;;;;;5060927;28;20442;-79
2022/03/22 08:03:09;;;;;;;0.60;0.10;;;9.20;99.90;;;;;;5054727;28;20637;-78
2022/03/22 08:05:39;;;;;;;66.40;51.93;;;9.30;99.90;;;;;;5066160;28;20471;-80
2022/03/22 08:08:07;;;;;;;3.60;1.87;;;9.30;99.90;;;;;;5065586;28;20475;-78
2022/03/22 08:10:55;;;;;;;1.23;1.13;;;9.40;99.90;;;;;;5059782;28;20478;-78
2022/03/22 08:13:23;;;;;;;3.20;3.00;;;9.40;99.90;;;;;;5072319;28;20466;-79
2022/03/22 08:15:52;;;;;;;0.60;0.10;;;9.40;99.90;;;;;;5079227;28;20425;-79
2022/03/22 08:18:20;;;;;;;0.60;0.10;;;9.50;99.90;;;;;;5072550;28;20442;-78
2022/03/22 08:20:48;;;;;;;0.60;0.10;;;9.60;99.90;;;;;;5070564;28;20442;-80
2022/03/22 08:23:16;;;;;;;0.60;0.10;;;9.70;99.90;;;;;;5070898;28;20545;-80
2022/03/22 08:25:46;;;;;;;0.60;0.10;;;9.80;99.90;;;;;;5060743;28;20462;-80
2022/03/22 08:28:14;;;;;;;0.60;0.10;;;9.80;99.90;;;;;;5068863;28;20445;-80
2022/03/22 08:30:44;;;;;;;0.60;0.10;;;9.80;99.90;;;;;;5057338;28;20542;-78
2022/03/22 08:33:13;;;;;;;0.60;0.30;;;9.90;99.90;;;;;;5063648;28;20820;-80
2022/03/22 08:35:43;;;;;;;0.60;0.10;;;10.10;99.90;;;;;;5059849;28;20456;-78
2022/03/22 08:38:11;;;;;;;2.50;2.30;;;10.10;99.90;;;;;;5064125;28;20913;-80
2022/03/22 08:40:40;;;;;;;1.63;1.53;;;10.30;99.90;;;;;;5068533;28;20510;-79
2022/03/22 08:43:08;;;;;;;0.60;0.20;;;10.30;99.90;;;;;;5066317;28;20484;-78
2022/03/22 08:45:37;;;;;;;0.60;0.10;;;10.40;99.90;;;;;;5061535;28;20489;-80
2022/03/22 08:48:09;;;;;;;0.60;0.10;;;10.40;99.90;;;;;;5061071;28;20460;-79
2022/03/22 08:50:42;;;;;;;0.60;0.10;;;10.50;99.90;;;;;;5061930;28;20482;-80
2022/03/22 08:53:10;;;;;;;0.60;0.10;;;10.60;99.90;;;;;;5062910;28;20494;-78
2022/03/22 08:55:44;;;;;;;0.60;0.10;;;10.60;99.90;;;;;;5067014;28;20499;-79
2022/03/22 08:58:12;;;;;;;0.60;0.10;;;10.70;99.90;;;;;;5065480;28;20445;-78
2022/03/22 09:00:40;;;;;;;1.43;1.33;;;10.70;99.90;;;;;;5062188;28;20580;-77
2022/03/22 09:03:11;;;;;;;0.60;0.10;;;10.80;99.90;;;;;;5063131;28;20493;-80
2022/03/22 09:08:27;;;;;;;0.60;0.10;;;10.20;99.90;;;;;;5061464;28;20505;-80
2022/03/22 09:10:55;;;;;;;0.60;0.10;;;11.00;99.90;;;;;;5063143;28;20473;-81
2022/03/22 09:13:28;;;;;;;0.60;0.10;;;11.10;99.90;;;;;;5060859;28;20473;-80
2022/03/22 09:15:56;;;;;;;0.60;0.10;;;11.10;99.90;;;;;;5063149;28;20534;-79
2022/03/22 09:18:28;;;;;;;0.60;0.10;;;11.20;99.90;;;;;;5069338;28;20449;-77
2022/03/22 09:20:57;;;;;;;0.60;0.10;;;11.20;99.90;;;;;;5070103;28;20418;-78
2022/03/22 09:23:25;;;;;;;0.60;0.10;;;11.30;99.90;;;;;;5068017;28;20465;-78
2022/03/22 09:25:54;;;;;;;0.60;0.20;;;11.40;99.90;;;;;;5068868;28;20526;-78
2022/03/22 09:28:22;;;;;;;0.60;0.10;;;11.50;99.90;;;;;;5071792;28;20513;-80
2022/03/22 09:30:50;;;;;;;0.60;0.10;;;11.50;99.90;;;;;;5073511;28;20546;-79
2022/03/22 09:33:18;;;;;;;0.60;0.10;;;11.60;99.90;;;;;;5069421;28;20534;-80
2022/03/22 09:35:48;;;;;;;0.60;0.10;;;11.70;99.90;;;;;;5070622;28;20537;-78
2022/03/22 09:38:19;;;;;;;3.50;3.30;;;11.70;99.90;;;;;;5059688;28;20803;-78
2022/03/22 09:40:47;;;;;;;0.60;0.10;;;11.70;99.90;;;;;;5056149;28;20447;-77
2022/03/22 09:43:16;;;;;;;0.70;0.60;;;11.70;99.90;;;;;;5056167;28;20573;-77
2022/03/22 09:45:45;;;;;;;0.60;0.10;;;11.90;99.90;;;;;;5055398;28;20439;-76
2022/03/22 09:48:16;;;;;;;0.60;0.10;;;11.90;99.90;;;;;;5054258;28;20488;-77
2022/03/22 09:53:33;;;;;;;0.60;0.23;;;;;;;;;;5057579;28;20528;-80
2022/03/22 09:56:01;;;;;;;1.43;1.03;;;12.20;99.90;;;;;;5055687;28;20984;-79
2022/03/22 09:58:29;;;;;;;0.60;0.10;;;12.20;99.90;;;;;;5059141;28;20442;-84
2022/03/22 10:01:01;;;;;;;0.60;0.10;;;12.20;99.90;;;;;;5061323;28;20435;-78
2022/03/22 10:03:29;;;;;;;0.60;0.10;;;12.20;99.90;;;;;;5055514;28;20477;-77
2022/03/22 10:06:01;;;;;;;0.60;0.20;;;12.20;99.90;;;;;;5067484;28;20466;-79
2022/03/22 10:08:30;;;;;;;0.60;0.30;;;12.30;99.90;;;;;;5061465;28;20470;-77
2022/03/22 10:11:06;;;;;;;0.60;0.20;;;12.50;99.90;;;;;;5058406;28;20470;-78
2022/03/22 10:13:35;;;;;;;0.60;0.10;;;12.40;99.90;;;;;;5056221;28;20438;-77
2022/03/22 10:16:05;;;;;;;19.60;17.70;;;12.60;99.90;;;;;;5054982;28;20442;-77
2022/03/22 10:18:35;;;;;;;0.60;0.10;;;12.70;99.90;;;;;;5055546;28;20451;-79
2022/03/22 10:21:05;;;;;;;0.60;0.20;;;12.80;99.90;;;;;;5056894;28;20480;-78
2022/03/22 10:23:34;;;;;;;0.60;0.30;;;12.80;99.90;;;;;;5053925;28;20471;-78
2022/03/22 10:26:04;;;;;;;0.60;0.10;;;12.90;99.90;;;;;;5053792;28;20442;-78
2022/03/22 10:28:34;;;;;;;0.60;0.10;;;12.90;99.90;;;;;;5056101;28;20443;-77
2022/03/22 10:31:02;;;;;;;0.97;0.87;;;13.10;99.90;;;;;;5057975;28;20483;-79
2022/03/22 10:33:30;;;;;;;0.60;0.10;;;13.00;99.90;;;;;;5058630;28;20485;-77
2022/03/22 10:36:11;;;;;;;0.60;0.17;;;13.10;99.90;;;;;;5057011;28;20538;-79
2022/03/22 10:38:40;;;;;;;0.60;0.20;;;13.20;99.90;;;;;;5057264;28;20442;-79
2022/03/22 10:41:09;;;;;;;0.60;0.10;;;13.30;99.90;;;;;;5061780;28;20471;-78
2022/03/22 10:43:39;;;;;;;2.40;0.80;;;13.30;99.90;;;;;;5063932;28;20458;-78
2022/03/22 10:46:12;;;;;;;1.60;1.40;;;13.30;99.90;;;;;;5063904;28;20426;-81
2022/03/22 10:48:42;;;;;;;12.30;11.77;;;13.40;99.90;;;;;;5061666;28;20449;-78
2022/03/22 10:51:10;;;;;;;0.60;0.10;;;;;;;;;;5058037;28;20549;-77
2022/03/22 10:53:38;;;;;;;1.40;0.97;;;13.60;99.90;;;;;;5057049;28;20444;-79
2022/03/22 10:56:06;;;;;;;0.60;0.17;;;13.70;99.90;;;;;;5054938;28;20443;-77
2022/03/22 10:58:35;;;;;;;0.60;0.30;;;13.60;99.90;;;;;;5057029;28;20451;-80
2022/03/22 11:01:06;;;;;;;0.60;0.10;;;13.80;99.90;;;;;;5053498;28;20462;-79
2022/03/22 11:03:34;;;;;;;0.60;0.10;;;13.90;99.90;;;;;;5054929;28;20513;-79
2022/03/22 11:06:04;;;;;;;0.60;0.13;;;13.90;99.90;;;;;;5054878;28;20814;-79
2022/03/22 11:08:33;;;;;;;0.60;0.10;;;14.00;99.90;;;;;;5055393;28;20452;-78
2022/03/22 11:11:01;;;;;;;0.60;0.10;;;14.20;99.90;;;;;;5056848;28;20828;-77
2022/03/22 11:13:29;;;;;;;0.60;0.10;;;14.10;99.90;;;;;;5056860;28;20491;-79
2022/03/22 11:15:59;;;;;;;0.60;0.10;;;14.20;99.90;;;;;;5055840;28;20482;-78
2022/03/22 11:18:30;;;;;;;1.17;1.07;;;14.40;99.90;;;;;;5059213;28;20447;-80
2022/03/22 11:20:59;;;;;;;0.60;0.10;;;14.50;99.90;;;;;;5063024;28;20441;-79
2022/03/22 11:23:28;;;;;;;0.70;0.53;;;14.50;99.90;;;;;;5060823;28;20458;-78
2022/03/22 11:26:07;;;;;;;0.60;0.20;;;14.50;99.90;;;;;;5060164;28;20545;-79
2022/03/22 11:28:36;;;;;;;0.60;0.10;;;14.60;99.90;;;;;;5056772;28;20460;-78
2022/03/22 11:31:05;;;;;;;0.60;0.10;;;14.70;99.90;;;;;;5050990;28;20517;-80
2022/03/22 11:36:21;;;;;;;0.60;0.10;;;14.80;99.90;;;;;;5049771;28;20495;-77
2022/03/22 11:38:51;;;;;;;0.60;0.10;;;15.00;99.90;;;;;;5051738;28;20942;-77
2022/03/22 11:44:13;;;;;;;0.60;0.10;;;15.10;99.90;;;;;;5051510;28;20459;-79
2022/03/22 11:46:42;;;;;;;0.60;0.10;;;15.20;99.90;;;;;;5051556;28;20455;-78
2022/03/22 11:49:21;;;;;;;0.60;0.10;;;15.20;99.90;;;;;;5054712;28;20520;-78
2022/03/22 11:51:51;;;;;;;0.60;0.10;;;15.20;99.90;;;;;;5054828;28;20555;-77
2022/03/22 11:54:20;;;;;;;1.00;0.53;;;15.30;99.90;;;;;;5054066;28;21056;-78
2022/03/22 11:56:51;;;;;;;0.60;0.10;;;15.30;99.90;;;;;;5052715;28;20772;-78
2022/03/22 11:59:23;;;;;;;3.07;2.00;;;15.40;99.90;;;;;;5053820;28;20443;-77
2022/03/22 12:02:00;;;;;;;0.60;0.20;;;15.60;99.90;;;;;;5051870;28;20478;-78
2022/03/22 12:04:40;;;;;;;1.73;1.10;;;15.80;99.90;;;;;;5054641;28;20466;-78
2022/03/22 12:07:11;;;;;;;1.77;0.60;;;15.80;99.90;;;;;;5053313;28;20846;-77
2022/03/22 12:09:40;;;;;;;0.60;0.10;;;15.80;99.90;;;;;;5052537;28;20457;-79
2022/03/22 12:12:11;;;;;;;0.60;0.20;;;16.00;99.90;;;;;;5058000;28;20866;-81
2022/03/22 12:14:39;;;;;;;0.60;0.10;;;16.10;99.90;;;;;;5059891;28;20490;-80
2022/03/22 12:17:07;;;;;;;0.60;0.20;;;16.30;99.90;;;;;;5061052;28;20459;-81
2022/03/22 12:19:36;;;;;;;0.60;0.20;;;16.50;99.90;;;;;;5063534;28;20808;-81
2022/03/22 12:22:06;;;;;;;0.60;0.10;;;16.60;99.90;;;;;;5067866;28;20477;-79
2022/03/22 12:24:35;;;;;;;0.60;0.10;;;16.60;99.90;;;;;;5067445;28;20483;-82
2022/03/22 12:27:07;;;;;;;0.60;0.10;;;16.60;99.90;;;;;;5068953;28;20444;-82
2022/03/22 12:29:40;;;;;;;3.60;1.70;;;16.60;99.90;;;;;;5051771;28;20455;-81
2022/03/22 12:32:14;;;;;;;1.80;1.70;;;16.90;99.90;;;;;;5058809;28;20530;-81
2022/03/22 12:34:43;;;;;;;0.70;0.47;;;16.90;99.90;;;;;;5060259;28;20460;-80
2022/03/22 12:37:13;;;;;;;0.70;0.43;;;17.10;99.90;;;;;;5058806;28;20445;-81
2022/03/22 12:39:43;;;;;;;0.60;0.10;;;17.20;99.90;;;;;;5060135;28;20498;-80
2022/03/22 12:42:19;;;;;;;0.60;0.13;;;17.20;99.90;;;;;;5058902;28;20542;-81
2022/03/22 12:44:48;;;;;;;0.60;0.10;;;17.10;99.90;;;;;;5057200;28;20439;-76
2022/03/22 12:47:35;;;;;;;0.60;0.20;;;17.20;99.90;;;;;;5061132;28;20471;-80
2022/03/22 12:50:05;;;;;;;0.60;0.10;;;17.20;99.90;;;;;;5059025;28;20527;-78
2022/03/22 12:52:35;;;;;;;0.60;0.10;;;17.30;99.90;;;;;;5059749;28;20561;-78
2022/03/22 12:55:05;;;;;;;0.60;0.10;;;17.30;99.90;;;;;;5056390;28;20449;-78
2022/03/22 12:57:34;;;;;;;0.80;0.70;;;17.30;99.90;;;;;;5055957;28;20496;-81
2022/03/22 13:00:02;;;;;;;0.60;0.20;;;17.50;99.90;;;;;;5058742;28;20446;-79
2022/03/22 13:02:30;;;;;;;2.67;2.57;;;17.60;99.90;;;;;;5065767;28;20458;-78
2022/03/22 13:04:59;;;;;;;0.70;0.60;;;17.80;99.90;;;;;;5064398;28;20502;-78
2022/03/22 13:07:28;;;;;;;0.60;0.20;;;17.80;99.90;;;;;;5054838;28;20444;-77
2022/03/22 13:12:45;;;;;;;0.70;0.30;;;18.00;99.90;;;;;;5056093;28;20638;-81
2022/03/22 13:15:13;;;;;;;0.60;0.20;;;18.00;99.90;;;;;;5056303;28;20439;-81
2022/03/22 13:17:45;;;;;;;0.60;0.10;;;18.10;99.90;;;;;;5053357;28;20460;-80
2022/03/22 13:20:17;;;;;;;0.60;0.10;;;18.10;99.90;;;;;;5055935;28;20799;-79
2022/03/22 13:22:53;;;;;;;0.60;0.20;;;18.20;99.90;;;;;;5052685;28;20486;-77
2022/03/22 13:25:30;;;;;;;0.60;0.10;;;18.20;99.90;;;;;;5062620;28;20447;-78
2022/03/22 13:27:59;;;;;;;1.60;1.50;;;18.20;99.90;;;;;;5063648;28;20912;-77
2022/03/22 13:30:29;;;;;;;0.60;0.10;;;18.20;99.90;;;;;;5066604;28;20486;-78
2022/03/22 13:33:07;;;;;;;0.60;0.20;;;18.20;99.90;;;;;;5057618;28;20513;-78
2022/03/22 13:35:35;;;;;;;0.60;0.20;;;18.20;99.90;;;;;;5054895;28;20440;-78
2022/03/22 13:38:06;;;;;;;0.60;0.20;;;18.20;99.90;;;;;;5053158;28;20526;-78
2022/03/22 13:40:38;;;;;;;0.60;0.10;;;18.20;99.90;;;;;;5052163;28;20448;-78
2022/03/22 13:43:07;;;;;;;0.60;0.10;;;18.20;99.90;;;;;;5052339;28;20465;-77
2022/03/22 13:45:37;;;;;;;0.60;0.20;;;18.30;99.90;;;;;;5044257;28;20567;-77
2022/03/22 13:48:09;;;;;;;0.60;0.10;;;18.20;99.90;;;;;;5052819;28;20442;-78
2022/03/22 13:50:38;;;;;;;0.60;0.10;;;18.30;99.90;;;;;;5052974;28;20446;-79
2022/03/22 13:53:08;;;;;;;0.60;0.10;;;18.30;99.90;;;;;;5050370;28;20489;-80
2022/03/22 13:55:39;;;;;;;0.60;0.10;;;18.30;99.90;;;;;;5060969;28;20815;-79